Hall, Indiana
Current Conditions -  °F | °C
As of 4:55 AM on Friday 28 Nov 2014 (Local Time) from KHNB Reporting Station
Clear Clear  
Wind Chill: 25°   Ceiling: Unl
Heat Index: 25°   Visibility: 10mi
Dew Point: 18°   Wind: 0mph
Humidity: 74%   Direction: NA
Pressure: 30.42"   Gusts: NA
Location:  38.4175°N, 86.9656°W
Report Text: KHNB 281055Z AUTO 00000KT 10SM CLR M04/M08 A3042 RMK AO1
Loading
Personal Weather Stations






























Interactive Weather Map New forecast layout! Learn more

10-Day Weather Forecast

Advertisements
Track Severe Weather on mobile